createdAt,value
2023-04-16T00:02:08.013Z,8.16
2023-04-16T00:04:35.409Z,8.19
2023-04-16T00:07:02.832Z,8.16
2023-04-16T00:09:30.153Z,8.09
2023-04-16T00:11:57.349Z,8.07
2023-04-16T00:14:24.572Z,8.14
2023-04-16T00:16:53.263Z,8.16
2023-04-16T00:19:20.492Z,8.22
2023-04-16T00:21:47.714Z,8.24
2023-04-16T00:24:14.928Z,8.21
2023-04-16T00:26:42.125Z,8.25
2023-04-16T00:29:09.623Z,8.25
2023-04-16T00:31:37.062Z,8.21
2023-04-16T00:34:05.625Z,8.30
2023-04-16T00:36:32.913Z,8.32
2023-04-16T00:39:00.225Z,8.27
2023-04-16T00:41:27.471Z,8.29
2023-04-16T00:43:54.717Z,8.28
2023-04-16T00:46:23.302Z,8.22
2023-04-16T00:48:52.555Z,8.25
2023-04-16T00:51:22.152Z,8.33
2023-04-16T00:53:50.416Z,8.30
2023-04-16T00:56:17.999Z,8.29
2023-04-16T00:58:45.249Z,8.34
2023-04-16T01:01:13.592Z,8.39
2023-04-16T01:03:44.619Z,8.42
2023-04-16T01:06:12.565Z,8.44
2023-04-16T01:08:41.157Z,8.45
2023-04-16T01:11:08.580Z,8.41
2023-04-16T01:13:35.810Z,8.44
2023-04-16T01:16:03.311Z,8.48
2023-04-16T01:18:30.570Z,8.50
2023-04-16T01:20:59.207Z,8.48
2023-04-16T01:23:26.614Z,8.52
2023-04-16T01:25:53.955Z,8.43
2023-04-16T01:28:22.029Z,8.41
2023-04-16T01:30:49.277Z,8.44
2023-04-16T01:33:28.463Z,8.42
2023-04-16T01:35:55.682Z,8.36
2023-04-16T01:38:24.304Z,8.36
2023-04-16T01:40:56.031Z,8.24
2023-04-16T01:43:23.023Z,8.29
2023-04-16T01:45:50.062Z,8.24
2023-04-16T01:48:17.263Z,8.29
2023-04-16T01:50:44.465Z,8.27
2023-04-16T01:53:11.612Z,8.33
2023-04-16T01:55:40.664Z,8.25
2023-04-16T01:58:08.027Z,8.25
2023-04-16T02:00:35.547Z,8.27
2023-04-16T02:03:03.217Z,8.18
2023-04-16T02:05:30.625Z,8.27
2023-04-16T02:07:58.419Z,8.21
2023-04-16T02:10:25.582Z,8.19
2023-04-16T02:12:54.249Z,8.25
2023-04-16T02:15:21.449Z,8.21
2023-04-16T02:17:48.733Z,8.30
2023-04-16T02:20:16.083Z,8.35
2023-04-16T02:22:50.875Z,8.39
2023-04-16T02:25:20.652Z,8.35
2023-04-16T02:27:48.242Z,8.37
2023-04-16T02:30:30.533Z,8.35
2023-04-16T02:32:57.795Z,8.37
2023-04-16T02:35:25.203Z,8.36
2023-04-16T02:37:52.451Z,8.36
2023-04-16T02:40:19.603Z,8.39
2023-04-16T02:42:46.775Z,8.38
2023-04-16T02:45:14.822Z,8.37
2023-04-16T02:47:43.345Z,8.29
2023-04-16T02:50:11.537Z,8.30
2023-04-16T02:52:38.699Z,8.22
2023-04-16T02:55:06.826Z,8.25
2023-04-16T02:57:34.432Z,8.24
2023-04-16T03:00:01.988Z,8.21
2023-04-16T03:02:29.539Z,8.22
2023-04-16T03:04:58.089Z,8.12
2023-04-16T03:07:25.270Z,8.10
2023-04-16T03:09:52.547Z,8.09
2023-04-16T03:12:19.692Z,8.07
2023-04-16T03:14:46.864Z,8.01
2023-04-16T03:17:14.049Z,8.03
2023-04-16T03:19:41.269Z,8.01
2023-04-16T03:22:09.960Z,8.00
2023-04-16T03:24:37.163Z,7.99
2023-04-16T03:27:04.523Z,7.99
2023-04-16T03:29:32.134Z,7.96
2023-04-16T03:31:59.647Z,7.88
2023-04-16T03:34:27.076Z,7.92
2023-04-16T03:36:54.231Z,7.96
2023-04-16T03:39:22.874Z,7.96
2023-04-16T03:41:50.047Z,7.99
2023-04-16T03:44:17.372Z,7.98
2023-04-16T03:46:45.857Z,7.89
2023-04-16T03:49:13.134Z,7.92
2023-04-16T03:51:40.411Z,7.92
2023-04-16T03:54:07.580Z,7.87
2023-04-16T03:56:36.180Z,7.92
2023-04-16T03:59:03.433Z,7.90
2023-04-16T04:01:30.757Z,7.97
2023-04-16T04:03:58.222Z,7.92
2023-04-16T04:06:25.551Z,7.98
2023-04-16T04:08:52.774Z,7.96
2023-04-16T04:11:19.991Z,7.90
2023-04-16T04:13:48.845Z,7.91
2023-04-16T04:16:16.075Z,7.91
2023-04-16T04:18:44.559Z,7.89
2023-04-16T04:21:12.286Z,7.89
2023-04-16T04:23:39.500Z,7.88
2023-04-16T04:26:07.009Z,7.87
2023-04-16T04:28:34.836Z,7.92
2023-04-16T04:31:03.430Z,7.89
2023-04-16T04:33:31.844Z,7.91
2023-04-16T04:35:59.083Z,7.91
2023-04-16T04:38:27.326Z,7.97
2023-04-16T04:40:54.630Z,7.94
2023-04-16T04:43:24.072Z,8.01
2023-04-16T04:45:51.416Z,8.01
2023-04-16T04:48:20.263Z,8.03
2023-04-16T04:50:47.477Z,8.03
2023-04-16T04:53:14.678Z,8.05
2023-04-16T04:55:41.878Z,8.06
2023-04-16T04:58:09.686Z,8.06
2023-04-16T05:00:37.631Z,8.07
2023-04-16T05:03:06.326Z,8.03
2023-04-16T05:05:34.905Z,8.02
2023-04-16T05:08:02.241Z,8.00
2023-04-16T05:10:29.567Z,8.00
2023-04-16T05:12:56.771Z,7.99
2023-04-16T05:15:23.958Z,7.96
2023-04-16T05:17:51.149Z,7.93
2023-04-16T05:20:18.609Z,8.01
2023-04-16T05:22:47.156Z,8.07
2023-04-16T05:25:14.362Z,8.03
2023-04-16T05:27:41.522Z,8.11
2023-04-16T05:30:09.377Z,8.15
2023-04-16T05:32:36.781Z,8.17
2023-04-16T05:35:04.559Z,8.17
2023-04-16T05:37:31.714Z,8.23
2023-04-16T05:40:00.274Z,8.22
2023-04-16T05:42:27.462Z,8.20
2023-04-16T05:44:54.731Z,8.17
2023-04-16T05:47:21.986Z,8.20
2023-04-16T05:49:49.635Z,8.17
2023-04-16T05:52:16.913Z,8.24
2023-04-16T05:54:44.114Z,8.26
2023-04-16T05:57:13.615Z,8.15
2023-04-16T05:59:40.808Z,8.20
2023-04-16T06:02:08.137Z,8.26
2023-04-16T06:04:35.369Z,8.27
2023-04-16T06:07:02.772Z,8.36
2023-04-16T06:09:30.188Z,8.39
2023-04-16T06:11:57.412Z,8.29
2023-04-16T06:14:25.955Z,8.22
2023-04-16T06:16:53.181Z,8.30
2023-04-16T06:19:20.454Z,8.24
2023-04-16T06:21:47.788Z,8.14
2023-04-16T06:24:14.976Z,8.24
2023-04-16T06:26:42.171Z,8.35
2023-04-16T06:29:09.515Z,8.41
2023-04-16T06:31:38.422Z,8.50
2023-04-16T06:34:05.626Z,8.56
2023-04-16T06:36:32.831Z,8.62
2023-04-16T06:38:59.972Z,8.68
2023-04-16T06:41:27.215Z,8.69
2023-04-16T06:43:54.337Z,8.74
2023-04-16T06:46:21.593Z,8.74
2023-04-16T06:48:50.427Z,8.80
2023-04-16T06:51:17.670Z,8.73
2023-04-16T06:53:44.905Z,8.79
2023-04-16T06:56:12.094Z,8.80
2023-04-16T06:58:39.272Z,8.82
2023-04-16T07:01:06.627Z,8.82
2023-04-16T07:03:34.150Z,8.85
2023-04-16T07:06:02.939Z,8.90
2023-04-16T07:08:30.220Z,8.94
2023-04-16T07:10:57.410Z,8.96
2023-04-16T07:13:24.821Z,8.97
2023-04-16T07:15:52.010Z,9.02
2023-04-16T07:18:20.701Z,9.02
2023-04-16T07:20:48.072Z,9.11
2023-04-16T07:23:16.571Z,9.23
2023-04-16T07:25:44.538Z,9.18
2023-04-16T07:28:11.846Z,9.18
2023-04-16T07:30:38.995Z,9.13
2023-04-16T07:33:06.235Z,9.13
2023-04-16T07:35:33.490Z,9.19
2023-04-16T07:38:00.672Z,9.08
2023-04-16T07:40:29.707Z,9.07
2023-04-16T07:42:56.911Z,9.13
2023-04-16T07:45:24.399Z,9.05
2023-04-16T07:47:51.719Z,9.00
2023-04-16T07:50:18.903Z,8.99
2023-04-16T07:52:46.996Z,8.96
2023-04-16T07:55:14.646Z,9.00
2023-04-16T07:57:43.156Z,9.08
2023-04-16T08:00:11.434Z,9.10
2023-04-16T08:02:41.840Z,9.13
2023-04-16T08:05:09.564Z,9.17
2023-04-16T08:07:36.733Z,9.31
2023-04-16T08:10:04.228Z,9.39
2023-04-16T08:12:31.488Z,9.52
2023-04-16T08:15:00.034Z,9.53
2023-04-16T08:17:27.360Z,9.59
2023-04-16T08:19:54.549Z,9.60
2023-04-16T08:22:21.768Z,9.63
2023-04-16T08:24:48.942Z,9.68
2023-04-16T08:27:19.866Z,9.76
2023-04-16T08:29:47.992Z,9.87
2023-04-16T08:32:16.861Z,9.91
2023-04-16T08:34:44.150Z,10.05
2023-04-16T08:37:11.306Z,10.14
2023-04-16T08:39:38.560Z,10.19
2023-04-16T08:42:10.714Z,10.20
2023-04-16T08:44:46.907Z,10.24
2023-04-16T08:47:16.738Z,10.30
2023-04-16T08:49:45.132Z,10.18
2023-04-16T08:52:18.306Z,10.21
2023-04-16T08:54:56.541Z,10.28
2023-04-16T08:57:30.332Z,10.40
2023-04-16T08:59:58.065Z,10.44
2023-04-16T09:02:27.111Z,10.47
2023-04-16T09:04:56.240Z,10.47
2023-04-16T09:07:25.657Z,10.51
2023-04-16T09:09:53.659Z,10.63
2023-04-16T09:12:23.684Z,10.68
2023-04-16T09:14:50.878Z,10.77
2023-04-16T09:17:18.947Z,10.87
2023-04-16T09:19:47.571Z,10.86
2023-04-16T09:22:14.847Z,10.91
2023-04-16T09:24:41.985Z,10.87
2023-04-16T09:27:09.222Z,10.58
2023-04-16T09:29:38.589Z,10.69
2023-04-16T09:32:07.751Z,10.74
2023-04-16T09:34:36.139Z,10.89
2023-04-16T09:37:17.756Z,11.02
2023-04-16T09:39:52.278Z,10.82
2023-04-16T09:42:21.961Z,10.85
2023-04-16T09:44:49.632Z,11.10
2023-04-16T09:47:17.037Z,11.14
2023-04-16T09:49:45.112Z,11.18
2023-04-16T09:52:13.796Z,10.98
2023-04-16T09:54:47.699Z,11.03
2023-04-16T09:57:18.025Z,10.87
2023-04-16T09:59:45.218Z,10.89
2023-04-16T10:02:14.759Z,10.67
2023-04-16T10:04:47.800Z,10.74
2023-04-16T10:07:15.248Z,10.65
2023-04-16T10:09:43.014Z,10.49
2023-04-16T10:12:11.574Z,10.58
2023-04-16T10:14:38.848Z,10.43
2023-04-16T10:17:06.490Z,10.35
2023-04-16T10:19:34.063Z,10.52
2023-04-16T10:22:01.474Z,10.48
2023-04-16T10:24:29.631Z,10.43
2023-04-16T10:26:57.242Z,10.55
2023-04-16T10:29:27.755Z,10.59
2023-04-16T10:31:56.502Z,10.60
2023-04-16T10:34:24.679Z,10.62
2023-04-16T10:36:53.693Z,10.84
2023-04-16T10:39:22.968Z,10.60
2023-04-16T10:41:50.840Z,10.58
2023-04-16T10:44:19.596Z,10.58
2023-04-16T10:46:48.689Z,10.51
2023-04-16T10:49:17.247Z,10.49
2023-04-16T10:51:53.291Z,10.28
2023-04-16T10:54:23.777Z,10.32
2023-04-16T10:56:51.489Z,10.37
2023-04-16T10:59:19.968Z,10.31
2023-04-16T11:01:50.467Z,10.31
2023-04-16T11:04:34.228Z,10.24
2023-04-16T11:07:07.125Z,10.34
2023-04-16T11:09:55.278Z,10.18
2023-04-16T11:12:24.132Z,10.24
2023-04-16T11:14:52.636Z,10.23
2023-04-16T11:17:21.711Z,10.18
2023-04-16T11:19:49.348Z,10.15
2023-04-16T11:22:17.636Z,10.14
2023-04-16T11:24:47.146Z,10.15
2023-04-16T11:27:14.902Z,10.19
2023-04-16T11:29:42.349Z,10.16
2023-04-16T11:32:09.557Z,10.06
2023-04-16T11:34:45.219Z,9.98
2023-04-16T11:37:12.583Z,9.79
2023-04-16T11:39:51.019Z,9.84
2023-04-16T11:42:22.350Z,9.95
2023-04-16T11:44:53.676Z,9.97
2023-04-16T11:47:21.340Z,10.04
2023-04-16T11:49:49.999Z,9.99
2023-04-16T11:52:27.627Z,9.99
2023-04-16T11:54:55.008Z,9.94
2023-04-16T11:57:26.888Z,10.00
2023-04-16T12:00:02.381Z,9.79
2023-04-16T12:02:40.898Z,9.75
2023-04-16T12:05:28.221Z,9.91
2023-04-16T12:07:55.938Z,9.79
2023-04-16T12:10:23.267Z,9.91
2023-04-16T12:12:50.474Z,9.91
2023-04-16T12:15:17.807Z,9.86
2023-04-16T12:17:45.081Z,9.88
2023-04-16T12:20:13.808Z,9.88
2023-04-16T12:22:45.361Z,9.78
2023-04-16T12:25:14.496Z,9.75
2023-04-16T12:27:43.261Z,9.71
2023-04-16T12:30:11.153Z,9.64
2023-04-16T12:32:38.708Z,9.62
2023-04-16T12:35:06.356Z,9.61
2023-04-16T12:37:33.538Z,9.58
2023-04-16T12:40:02.029Z,9.59
2023-04-16T12:42:29.230Z,9.68
2023-04-16T12:44:56.451Z,9.59
2023-04-16T12:47:23.599Z,9.56
2023-04-16T12:49:50.781Z,9.39
2023-04-16T12:52:17.996Z,9.39
2023-04-16T12:54:45.175Z,9.52
2023-04-16T12:57:13.829Z,9.59
2023-04-16T12:59:40.954Z,9.63
2023-04-16T13:02:08.470Z,9.77
2023-04-16T13:04:35.812Z,9.80
2023-04-16T13:07:03.216Z,9.70
2023-04-16T13:09:30.877Z,9.77
2023-04-16T13:11:58.020Z,9.71
2023-04-16T13:14:26.524Z,9.69
2023-04-16T13:16:53.669Z,9.75
2023-04-16T13:19:20.855Z,9.86
2023-04-16T13:21:48.065Z,9.71
2023-04-16T13:24:15.379Z,9.92
2023-04-16T13:26:42.580Z,9.92
2023-04-16T13:29:09.927Z,10.01
2023-04-16T13:31:38.852Z,10.00
2023-04-16T13:34:06.046Z,9.83
2023-04-16T13:36:33.333Z,9.77
2023-04-16T13:39:00.604Z,9.70
2023-04-16T13:41:27.773Z,9.70
2023-04-16T13:43:54.993Z,9.70
2023-04-16T13:46:22.317Z,9.82
2023-04-16T13:48:50.930Z,9.91
2023-04-16T13:51:18.110Z,9.96
2023-04-16T13:53:45.267Z,9.94
2023-04-16T13:56:12.512Z,9.83
2023-04-16T13:58:39.966Z,9.83
2023-04-16T14:01:07.157Z,9.84
2023-04-16T14:03:34.522Z,9.94
2023-04-16T14:06:03.759Z,9.89
2023-04-16T14:08:31.459Z,9.96
2023-04-16T14:10:58.923Z,10.08
2023-04-16T14:13:26.226Z,10.07
2023-04-16T14:15:53.816Z,10.11
2023-04-16T14:18:21.054Z,10.07
2023-04-16T14:20:48.465Z,10.06
2023-04-16T14:23:17.052Z,10.07
2023-04-16T14:25:44.214Z,10.07
2023-04-16T14:28:12.221Z,10.09
2023-04-16T14:30:40.184Z,10.08
2023-04-16T14:33:07.373Z,10.09
2023-04-16T14:35:34.590Z,10.10
2023-04-16T14:38:02.008Z,10.01
2023-04-16T14:40:30.533Z,10.08
2023-04-16T14:42:57.708Z,10.16
2023-04-16T14:45:24.870Z,10.24
2023-04-16T14:47:52.070Z,10.27
2023-04-16T14:50:19.412Z,10.40
2023-04-16T14:52:46.663Z,10.37
2023-04-16T14:55:13.915Z,10.37
2023-04-16T14:57:42.499Z,10.45
2023-04-16T15:00:10.842Z,10.39
2023-04-16T15:02:38.196Z,10.38
2023-04-16T15:05:06.313Z,10.53
2023-04-16T15:07:33.474Z,10.54
2023-04-16T15:10:00.696Z,10.53
2023-04-16T15:12:27.878Z,10.62
2023-04-16T15:14:56.432Z,10.55
2023-04-16T15:17:23.655Z,10.52
2023-04-16T15:19:50.989Z,10.53
2023-04-16T15:22:18.297Z,10.51
2023-04-16T15:24:45.472Z,10.60
2023-04-16T15:27:12.629Z,10.68
2023-04-16T15:29:39.832Z,10.59
2023-04-16T15:32:08.353Z,10.45
2023-04-16T15:34:35.565Z,10.28
2023-04-16T15:37:02.782Z,10.23
2023-04-16T15:39:31.160Z,10.26
2023-04-16T15:42:01.820Z,10.21
2023-04-16T15:44:29.985Z,10.21
2023-04-16T15:46:57.081Z,10.19
2023-04-16T15:49:25.796Z,10.15
2023-04-16T15:51:53.204Z,10.20
2023-04-16T15:54:20.409Z,10.21
2023-04-16T15:56:47.754Z,10.20
2023-04-16T15:59:14.971Z,10.17
2023-04-16T16:01:42.262Z,10.24
2023-04-16T16:04:09.873Z,10.31
2023-04-16T16:06:38.652Z,10.33
2023-04-16T16:09:05.904Z,10.25
2023-04-16T16:11:33.194Z,10.27
2023-04-16T16:14:00.389Z,10.30
2023-04-16T16:16:27.601Z,10.21
2023-04-16T16:18:55.224Z,10.20
2023-04-16T16:21:22.444Z,10.19
2023-04-16T16:23:51.011Z,10.19
2023-04-16T16:26:18.301Z,10.16
2023-04-16T16:28:45.480Z,10.17
2023-04-16T16:31:12.672Z,10.16
2023-04-16T16:33:40.665Z,10.22
2023-04-16T16:36:10.052Z,10.26
2023-04-16T16:38:37.370Z,10.17
2023-04-16T16:41:05.953Z,10.22
2023-04-16T16:43:33.264Z,10.22
2023-04-16T16:46:00.469Z,10.23
2023-04-16T16:48:27.627Z,10.12
2023-04-16T16:50:54.796Z,10.12
2023-04-16T16:53:22.095Z,10.03
2023-04-16T16:55:49.261Z,10.05
2023-04-16T16:58:17.766Z,10.02
2023-04-16T17:00:45.001Z,9.98
2023-04-16T17:03:12.307Z,9.99
2023-04-16T17:05:39.532Z,10.03
2023-04-16T17:08:06.708Z,9.96
2023-04-16T17:10:35.195Z,9.93
2023-04-16T17:13:02.388Z,9.89
2023-04-16T17:15:30.956Z,9.94
2023-04-16T17:17:58.283Z,9.90
2023-04-16T17:20:25.510Z,9.94
2023-04-16T17:22:52.682Z,9.96
2023-04-16T17:25:19.974Z,9.91
2023-04-16T17:27:47.162Z,9.87
2023-04-16T17:30:14.707Z,9.93
2023-04-16T17:32:43.361Z,9.85
2023-04-16T17:35:10.558Z,9.80
2023-04-16T17:37:37.823Z,9.79
2023-04-16T17:40:06.295Z,9.82
2023-04-16T17:42:33.665Z,9.87
2023-04-16T17:45:01.019Z,9.74
2023-04-16T17:47:28.229Z,9.70
2023-04-16T17:49:56.749Z,9.72
2023-04-16T17:52:23.938Z,9.69
2023-04-16T17:54:51.127Z,9.72
2023-04-16T17:57:18.438Z,9.72
2023-04-16T17:59:45.610Z,9.64
2023-04-16T18:02:12.869Z,9.66
2023-04-16T18:04:40.245Z,9.69
2023-04-16T18:07:09.086Z,9.64
2023-04-16T18:09:37.461Z,9.68
2023-04-16T18:12:06.119Z,9.65
2023-04-16T18:14:34.076Z,9.63
2023-04-16T18:17:01.800Z,9.61
2023-04-16T18:19:29.788Z,9.62
2023-04-16T18:21:57.182Z,9.56
2023-04-16T18:24:25.736Z,9.50
2023-04-16T18:26:53.600Z,9.43
2023-04-16T18:29:25.110Z,9.39
2023-04-16T18:31:52.806Z,9.39
2023-04-16T18:34:20.113Z,9.43
2023-04-16T18:36:47.352Z,9.41
2023-04-16T18:39:14.653Z,9.43
2023-04-16T18:41:44.696Z,9.41
2023-04-16T18:44:11.932Z,9.43
2023-04-16T18:46:39.139Z,9.39
2023-04-16T18:49:06.482Z,9.29
2023-04-16T18:51:33.824Z,9.31
2023-04-16T18:54:00.968Z,9.32
2023-04-16T18:56:29.186Z,9.26
2023-04-16T18:58:57.793Z,9.16
2023-04-16T19:01:25.192Z,9.14
2023-04-16T19:03:52.408Z,9.05
2023-04-16T19:06:19.623Z,9.10
2023-04-16T19:08:46.806Z,9.05
2023-04-16T19:11:14.019Z,9.06
2023-04-16T19:13:41.188Z,9.06
2023-04-16T19:16:09.824Z,9.02
2023-04-16T19:18:37.084Z,9.06
2023-04-16T19:21:04.558Z,8.96
2023-04-16T19:23:32.560Z,8.95
2023-04-16T19:25:59.728Z,8.87
2023-04-16T19:28:27.160Z,8.90
2023-04-16T19:30:54.862Z,8.96
2023-04-16T19:33:23.522Z,8.91
2023-04-16T19:35:50.737Z,8.82
2023-04-16T19:38:17.932Z,8.86
2023-04-16T19:40:45.650Z,8.83
2023-04-16T19:43:13.095Z,8.88
2023-04-16T19:45:43.747Z,8.85
2023-04-16T19:48:11.048Z,8.75
2023-04-16T19:50:40.581Z,8.78
2023-04-16T19:53:07.999Z,8.87
2023-04-16T19:55:35.232Z,8.87
2023-04-16T19:58:02.578Z,8.81
2023-04-16T20:00:29.757Z,8.79
2023-04-16T20:02:57.014Z,8.82
2023-04-16T20:05:24.993Z,8.82
2023-04-16T20:07:53.713Z,8.86
2023-04-16T20:10:21.252Z,8.74
2023-04-16T20:12:48.648Z,8.76
2023-04-16T20:15:16.041Z,8.76
2023-04-16T20:17:43.201Z,8.80
2023-04-16T20:20:11.512Z,8.80
2023-04-16T20:22:39.388Z,8.79
2023-04-16T20:25:09.513Z,8.70
2023-04-16T20:27:36.759Z,8.70
2023-04-16T20:30:04.752Z,8.68
2023-04-16T20:32:32.090Z,8.70
2023-04-16T20:34:59.302Z,8.65
2023-04-16T20:37:26.788Z,8.61
2023-04-16T20:39:54.121Z,8.63
2023-04-16T20:42:23.234Z,8.68
2023-04-16T20:44:50.567Z,8.73
2023-04-16T20:47:17.889Z,8.63
2023-04-16T20:49:45.116Z,8.66
2023-04-16T20:52:12.591Z,8.64
2023-04-16T20:54:39.764Z,8.65
2023-04-16T20:57:07.382Z,8.59
2023-04-16T20:59:36.001Z,8.64
2023-04-16T21:02:03.330Z,8.56
2023-04-16T21:04:30.875Z,8.52
2023-04-16T21:06:58.332Z,8.53
2023-04-16T21:09:25.596Z,8.55
2023-04-16T21:11:52.773Z,8.57
2023-04-16T21:14:19.958Z,8.56
2023-04-16T21:16:48.519Z,8.59
2023-04-16T21:19:15.796Z,8.56
2023-04-16T21:21:42.976Z,8.59
2023-04-16T21:24:10.319Z,8.57
2023-04-16T21:26:37.515Z,8.56
2023-04-16T21:29:04.669Z,8.57
2023-04-16T21:31:32.082Z,8.53
2023-04-16T21:34:00.755Z,8.45
2023-04-16T21:36:28.016Z,8.43
2023-04-16T21:38:55.169Z,8.35
2023-04-16T21:41:22.420Z,8.37
2023-04-16T21:43:49.656Z,8.33
2023-04-16T21:46:16.924Z,8.29
2023-04-16T21:48:44.134Z,8.37
2023-04-16T21:51:12.719Z,8.35
2023-04-16T21:53:40.001Z,8.33
2023-04-16T21:56:07.609Z,8.29
2023-04-16T21:58:34.868Z,8.29
2023-04-16T22:01:02.120Z,8.27
2023-04-16T22:03:29.618Z,8.22
2023-04-16T22:05:57.657Z,8.22
2023-04-16T22:08:26.279Z,8.23
2023-04-16T22:10:56.648Z,8.22
2023-04-16T22:13:23.919Z,8.22
2023-04-16T22:15:51.167Z,8.25
2023-04-16T22:18:18.384Z,8.28
2023-04-16T22:20:45.573Z,8.30
2023-04-16T22:23:12.878Z,8.30
2023-04-16T22:25:41.630Z,8.31
2023-04-16T22:28:08.815Z,8.29
2023-04-16T22:30:35.994Z,8.35
2023-04-16T22:33:03.266Z,8.36
2023-04-16T22:35:30.457Z,8.37
2023-04-16T22:37:57.794Z,8.33
2023-04-16T22:40:24.981Z,8.30
2023-04-16T22:42:53.505Z,8.29
2023-04-16T22:45:20.771Z,8.29
2023-04-16T22:47:49.199Z,8.24
2023-04-16T22:50:16.355Z,8.25
2023-04-16T22:52:43.586Z,8.26
2023-04-16T22:55:10.765Z,8.25
2023-04-16T22:57:37.949Z,8.25
2023-04-16T23:00:07.893Z,8.28
2023-04-16T23:02:35.221Z,8.28
2023-04-16T23:05:02.470Z,8.34
2023-04-16T23:07:29.625Z,8.28
2023-04-16T23:09:56.802Z,8.26
2023-04-16T23:12:24.126Z,8.27
2023-04-16T23:14:51.304Z,8.23
2023-04-16T23:17:19.830Z,8.20
2023-04-16T23:19:47.008Z,8.18
2023-04-16T23:22:14.302Z,8.20
2023-04-16T23:24:41.449Z,8.18
2023-04-16T23:27:08.619Z,8.14
2023-04-16T23:29:35.788Z,8.14
2023-04-16T23:32:03.092Z,8.13
2023-04-16T23:34:31.582Z,8.13
2023-04-16T23:36:58.809Z,8.10
2023-04-16T23:39:26.014Z,8.04
2023-04-16T23:41:53.272Z,8.00
2023-04-16T23:44:20.405Z,7.91
2023-04-16T23:46:47.600Z,7.86
2023-04-16T23:49:14.794Z,7.86
2023-04-16T23:51:43.309Z,7.84
2023-04-16T23:54:10.539Z,7.74
2023-04-16T23:56:37.700Z,7.68
2023-04-16T23:59:05.273Z,7.70
